sensor_id;sensor_type;location;lat;lon;timestamp;temperature;humidity
16970;DHT22;8601;48.718;8.992;2022-10-30T00:01:14;16.70;94.80
16970;DHT22;8601;48.718;8.992;2022-10-30T00:03:41;16.60;94.80
16970;DHT22;8601;48.718;8.992;2022-10-30T00:06:08;16.60;95.00
16970;DHT22;8601;48.718;8.992;2022-10-30T00:08:34;16.60;94.70
16970;DHT22;8601;48.718;8.992;2022-10-30T00:11:07;16.70;94.30
16970;DHT22;8601;48.718;8.992;2022-10-30T00:13:35;16.70;94.50
16970;DHT22;8601;48.718;8.992;2022-10-30T00:16:04;16.70;94.60
16970;DHT22;8601;48.718;8.992;2022-10-30T00:18:31;16.60;94.30
16970;DHT22;8601;48.718;8.992;2022-10-30T00:21:04;16.60;94.40
16970;DHT22;8601;48.718;8.992;2022-10-30T00:23:31;16.60;94.90
16970;DHT22;8601;48.718;8.992;2022-10-30T00:26:02;16.60;94.50
16970;DHT22;8601;48.718;8.992;2022-10-30T00:28:30;16.50;94.80
16970;DHT22;8601;48.718;8.992;2022-10-30T00:31:10;16.50;94.80
16970;DHT22;8601;48.718;8.992;2022-10-30T00:33:37;16.40;95.00
16970;DHT22;8601;48.718;8.992;2022-10-30T00:36:04;16.40;95.30
16970;DHT22;8601;48.718;8.992;2022-10-30T00:38:31;16.30;95.70
16970;DHT22;8601;48.718;8.992;2022-10-30T00:40:58;16.20;95.90
16970;DHT22;8601;48.718;8.992;2022-10-30T00:43:32;16.10;96.60
16970;DHT22;8601;48.718;8.992;2022-10-30T00:46:01;16.00;97.70
16970;DHT22;8601;48.718;8.992;2022-10-30T00:48:31;15.90;98.20
16970;DHT22;8601;48.718;8.992;2022-10-30T00:50:59;15.80;98.70
16970;DHT22;8601;48.718;8.992;2022-10-30T00:53:28;15.70;98.80
16970;DHT22;8601;48.718;8.992;2022-10-30T00:55:58;15.70;98.80
16970;DHT22;8601;48.718;8.992;2022-10-30T00:58:32;15.70;98.80
16970;DHT22;8601;48.718;8.992;2022-10-30T01:01:18;15.70;99.10
16970;DHT22;8601;48.718;8.992;2022-10-30T01:03:48;15.60;98.20
16970;DHT22;8601;48.718;8.992;2022-10-30T01:06:16;15.50;98.00
16970;DHT22;8601;48.718;8.992;2022-10-30T01:08:45;15.50;98.20
16970;DHT22;8601;48.718;8.992;2022-10-30T01:11:12;15.50;98.30
16970;DHT22;8601;48.718;8.992;2022-10-30T01:13:42;15.60;98.40
16970;DHT22;8601;48.718;8.992;2022-10-30T01:19:21;15.70;97.70
16970;DHT22;8601;48.718;8.992;2022-10-30T01:22:05;15.60;97.60
16970;DHT22;8601;48.718;8.992;2022-10-30T01:24:55;15.70;97.80
16970;DHT22;8601;48.718;8.992;2022-10-30T01:27:36;15.70;97.50
16970;DHT22;8601;48.718;8.992;2022-10-30T01:30:15;15.70;97.40
16970;DHT22;8601;48.718;8.992;2022-10-30T01:32:56;15.70;97.50
16970;DHT22;8601;48.718;8.992;2022-10-30T01:35:31;15.70;97.90
16970;DHT22;8601;48.718;8.992;2022-10-30T01:38:02;15.60;98.10
16970;DHT22;8601;48.718;8.992;2022-10-30T01:40:32;15.60;97.70
16970;DHT22;8601;48.718;8.992;2022-10-30T01:42:59;15.60;97.50
16970;DHT22;8601;48.718;8.992;2022-10-30T01:45:42;15.60;97.70
16970;DHT22;8601;48.718;8.992;2022-10-30T01:51:18;15.60;97.40
16970;DHT22;8601;48.718;8.992;2022-10-30T01:53:53;15.60;97.90
16970;DHT22;8601;48.718;8.992;2022-10-30T01:56:28;15.60;98.50
16970;DHT22;8601;48.718;8.992;2022-10-30T01:59:04;15.60;97.90
16970;DHT22;8601;48.718;8.992;2022-10-30T02:01:36;15.50;98.00
16970;DHT22;8601;48.718;8.992;2022-10-30T02:04:05;15.50;97.80
16970;DHT22;8601;48.718;8.992;2022-10-30T02:06:33;15.40;98.00
16970;DHT22;8601;48.718;8.992;2022-10-30T02:09:00;15.40;98.30
16970;DHT22;8601;48.718;8.992;2022-10-30T02:11:28;15.50;97.90
16970;DHT22;8601;48.718;8.992;2022-10-30T02:13:56;15.40;97.80
16970;DHT22;8601;48.718;8.992;2022-10-30T02:16:23;15.50;98.50
16970;DHT22;8601;48.718;8.992;2022-10-30T02:18:51;15.40;98.40
16970;DHT22;8601;48.718;8.992;2022-10-30T02:21:20;15.40;98.00
16970;DHT22;8601;48.718;8.992;2022-10-30T02:23:47;15.40;98.40
16970;DHT22;8601;48.718;8.992;2022-10-30T02:26:13;15.30;98.30
16970;DHT22;8601;48.718;8.992;2022-10-30T02:28:40;15.30;98.60
16970;DHT22;8601;48.718;8.992;2022-10-30T02:31:07;15.30;99.00
16970;DHT22;8601;48.718;8.992;2022-10-30T02:33:34;15.30;98.60
16970;DHT22;8601;48.718;8.992;2022-10-30T02:36:02;15.30;98.80
16970;DHT22;8601;48.718;8.992;2022-10-30T02:38:30;15.20;98.80
16970;DHT22;8601;48.718;8.992;2022-10-30T02:40:57;15.30;99.40
16970;DHT22;8601;48.718;8.992;2022-10-30T02:43:34;15.20;99.30
16970;DHT22;8601;48.718;8.992;2022-10-30T02:46:02;15.20;99.00
16970;DHT22;8601;48.718;8.992;2022-10-30T02:48:30;15.10;98.80
16970;DHT22;8601;48.718;8.992;2022-10-30T02:50:58;15.10;98.90
16970;DHT22;8601;48.718;8.992;2022-10-30T02:53:35;15.10;99.30
16970;DHT22;8601;48.718;8.992;2022-10-30T02:56:03;15.10;99.40
16970;DHT22;8601;48.718;8.992;2022-10-30T02:58:30;15.10;99.70
16970;DHT22;8601;48.718;8.992;2022-10-30T03:00:57;15.10;99.60
16970;DHT22;8601;48.718;8.992;2022-10-30T03:03:24;15.00;99.50
16970;DHT22;8601;48.718;8.992;2022-10-30T03:05:51;14.90;99.40
16970;DHT22;8601;48.718;8.992;2022-10-30T03:08:18;14.90;99.60
16970;DHT22;8601;48.718;8.992;2022-10-30T03:10:46;14.90;99.70
16970;DHT22;8601;48.718;8.992;2022-10-30T03:13:13;14.90;99.60
16970;DHT22;8601;48.718;8.992;2022-10-30T03:15:39;14.80;99.80
16970;DHT22;8601;48.718;8.992;2022-10-30T03:18:06;14.80;99.90
16970;DHT22;8601;48.718;8.992;2022-10-30T03:20:33;14.80;99.90
16970;DHT22;8601;48.718;8.992;2022-10-30T03:23:00;14.80;99.70
16970;DHT22;8601;48.718;8.992;2022-10-30T03:25:36;14.70;99.90
16970;DHT22;8601;48.718;8.992;2022-10-30T03:28:04;14.70;99.80
16970;DHT22;8601;48.718;8.992;2022-10-30T03:30:32;14.70;99.90
16970;DHT22;8601;48.718;8.992;2022-10-30T03:32:59;14.60;99.90
16970;DHT22;8601;48.718;8.992;2022-10-30T03:35:26;14.60;99.90
16970;DHT22;8601;48.718;8.992;2022-10-30T03:37:53;14.60;99.90
16970;DHT22;8601;48.718;8.992;2022-10-30T03:40:20;14.60;99.90
16970;DHT22;8601;48.718;8.992;2022-10-30T03:42:47;14.50;99.90
16970;DHT22;8601;48.718;8.992;2022-10-30T03:45:15;14.40;99.90
16970;DHT22;8601;48.718;8.992;2022-10-30T03:47:42;14.50;99.90
16970;DHT22;8601;48.718;8.992;2022-10-30T03:50:09;14.50;99.90
16970;DHT22;8601;48.718;8.992;2022-10-30T03:52:36;14.50;99.90
16970;DHT22;8601;48.718;8.992;2022-10-30T03:55:03;14.40;99.90
16970;DHT22;8601;48.718;8.992;2022-10-30T03:57:30;14.40;99.90
16970;DHT22;8601;48.718;8.992;2022-10-30T03:59:57;14.30;99.90
16970;DHT22;8601;48.718;8.992;2022-10-30T04:02:25;14.30;99.90
16970;DHT22;8601;48.718;8.992;2022-10-30T04:04:52;14.30;99.90
16970;DHT22;8601;48.718;8.992;2022-10-30T04:07:19;14.30;99.90
16970;DHT22;8601;48.718;8.992;2022-10-30T04:09:46;14.20;99.90
16970;DHT22;8601;48.718;8.992;2022-10-30T04:12:12;14.20;99.90
16970;DHT22;8601;48.718;8.992;2022-10-30T04:14:40;14.10;99.90
16970;DHT22;8601;48.718;8.992;2022-10-30T04:17:06;14.10;99.90
16970;DHT22;8601;48.718;8.992;2022-10-30T04:19:35;14.00;99.90
16970;DHT22;8601;48.718;8.992;2022-10-30T04:22:02;14.00;99.90
16970;DHT22;8601;48.718;8.992;2022-10-30T04:24:29;14.00;99.90
16970;DHT22;8601;48.718;8.992;2022-10-30T04:26:55;14.00;99.90
16970;DHT22;8601;48.718;8.992;2022-10-30T04:29:22;14.00;99.90
16970;DHT22;8601;48.718;8.992;2022-10-30T04:31:49;14.00;99.90
16970;DHT22;8601;48.718;8.992;2022-10-30T04:34:16;14.00;99.90
16970;DHT22;8601;48.718;8.992;2022-10-30T04:36:44;14.00;99.90
16970;DHT22;8601;48.718;8.992;2022-10-30T04:39:11;14.00;99.90
16970;DHT22;8601;48.718;8.992;2022-10-30T04:41:38;14.00;99.90
16970;DHT22;8601;48.718;8.992;2022-10-30T04:44:05;13.90;99.90
16970;DHT22;8601;48.718;8.992;2022-10-30T04:46:39;13.90;99.90
16970;DHT22;8601;48.718;8.992;2022-10-30T04:49:06;13.90;99.90
16970;DHT22;8601;48.718;8.992;2022-10-30T04:51:33;13.90;99.90
16970;DHT22;8601;48.718;8.992;2022-10-30T04:54:01;13.90;99.90
16970;DHT22;8601;48.718;8.992;2022-10-30T04:56:41;13.90;99.90
16970;DHT22;8601;48.718;8.992;2022-10-30T04:59:08;13.80;99.90
16970;DHT22;8601;48.718;8.992;2022-10-30T05:01:35;13.80;99.90
16970;DHT22;8601;48.718;8.992;2022-10-30T05:04:01;13.80;99.90
16970;DHT22;8601;48.718;8.992;2022-10-30T05:06:40;13.80;99.90
16970;DHT22;8601;48.718;8.992;2022-10-30T05:09:08;13.80;99.90
16970;DHT22;8601;48.718;8.992;2022-10-30T05:11:35;13.80;99.90
16970;DHT22;8601;48.718;8.992;2022-10-30T05:14:02;13.70;99.90
16970;DHT22;8601;48.718;8.992;2022-10-30T05:16:52;13.70;99.90
16970;DHT22;8601;48.718;8.992;2022-10-30T05:19:19;13.70;99.90
16970;DHT22;8601;48.718;8.992;2022-10-30T05:21:46;13.70;99.90
16970;DHT22;8601;48.718;8.992;2022-10-30T05:24:14;13.60;99.90
16970;DHT22;8601;48.718;8.992;2022-10-30T05:26:41;13.70;99.90
16970;DHT22;8601;48.718;8.992;2022-10-30T05:29:08;13.70;99.90
16970;DHT22;8601;48.718;8.992;2022-10-30T05:31:35;13.70;99.90
16970;DHT22;8601;48.718;8.992;2022-10-30T05:34:02;13.70;99.90
16970;DHT22;8601;48.718;8.992;2022-10-30T05:36:29;13.70;99.90
16970;DHT22;8601;48.718;8.992;2022-10-30T05:38:56;13.70;99.90
16970;DHT22;8601;48.718;8.992;2022-10-30T05:41:24;13.70;99.90
16970;DHT22;8601;48.718;8.992;2022-10-30T05:43:51;13.70;99.90
16970;DHT22;8601;48.718;8.992;2022-10-30T05:46:18;13.70;99.90
16970;DHT22;8601;48.718;8.992;2022-10-30T05:48:45;13.70;99.90
16970;DHT22;8601;48.718;8.992;2022-10-30T05:51:12;13.70;99.90
16970;DHT22;8601;48.718;8.992;2022-10-30T05:53:38;13.70;99.90
16970;DHT22;8601;48.718;8.992;2022-10-30T05:56:05;13.70;99.90
16970;DHT22;8601;48.718;8.992;2022-10-30T05:58:40;13.70;99.90
16970;DHT22;8601;48.718;8.992;2022-10-30T06:01:07;13.60;99.90
16970;DHT22;8601;48.718;8.992;2022-10-30T06:03:36;13.60;99.90
16970;DHT22;8601;48.718;8.992;2022-10-30T06:06:10;13.50;99.90
16970;DHT22;8601;48.718;8.992;2022-10-30T06:08:38;13.60;99.90
16970;DHT22;8601;48.718;8.992;2022-10-30T06:11:05;13.50;99.90
16970;DHT22;8601;48.718;8.992;2022-10-30T06:13:32;13.50;99.90
16970;DHT22;8601;48.718;8.992;2022-10-30T06:16:00;13.40;99.90
16970;DHT22;8601;48.718;8.992;2022-10-30T06:18:27;13.50;99.90
16970;DHT22;8601;48.718;8.992;2022-10-30T06:20:54;13.40;99.90
16970;DHT22;8601;48.718;8.992;2022-10-30T06:23:24;13.40;99.90
16970;DHT22;8601;48.718;8.992;2022-10-30T06:25:51;13.40;99.90
16970;DHT22;8601;48.718;8.992;2022-10-30T06:28:18;13.40;99.90
16970;DHT22;8601;48.718;8.992;2022-10-30T06:30:45;13.40;99.90
16970;DHT22;8601;48.718;8.992;2022-10-30T06:33:13;13.30;99.90
16970;DHT22;8601;48.718;8.992;2022-10-30T06:35:40;13.30;99.90
16970;DHT22;8601;48.718;8.992;2022-10-30T06:38:07;13.30;99.90
16970;DHT22;8601;48.718;8.992;2022-10-30T06:40:47;13.30;99.90
16970;DHT22;8601;48.718;8.992;2022-10-30T06:43:14;13.40;99.90
16970;DHT22;8601;48.718;8.992;2022-10-30T06:45:41;13.40;99.90
16970;DHT22;8601;48.718;8.992;2022-10-30T06:48:08;13.30;99.90
16970;DHT22;8601;48.718;8.992;2022-10-30T06:50:36;13.30;99.90
16970;DHT22;8601;48.718;8.992;2022-10-30T06:53:03;13.40;99.90
16970;DHT22;8601;48.718;8.992;2022-10-30T06:55:30;13.40;99.90
16970;DHT22;8601;48.718;8.992;2022-10-30T06:57:57;13.30;99.90
16970;DHT22;8601;48.718;8.992;2022-10-30T07:00:24;13.30;99.90
16970;DHT22;8601;48.718;8.992;2022-10-30T07:02:57;13.30;99.90
16970;DHT22;8601;48.718;8.992;2022-10-30T07:05:24;13.30;99.90
16970;DHT22;8601;48.718;8.992;2022-10-30T07:07:56;13.30;99.90
16970;DHT22;8601;48.718;8.992;2022-10-30T07:10:27;13.40;99.90
16970;DHT22;8601;48.718;8.992;2022-10-30T07:12:56;13.40;99.90
16970;DHT22;8601;48.718;8.992;2022-10-30T07:15:24;13.50;99.90
16970;DHT22;8601;48.718;8.992;2022-10-30T07:17:56;13.60;99.90
16970;DHT22;8601;48.718;8.992;2022-10-30T07:20:26;13.60;99.90
16970;DHT22;8601;48.718;8.992;2022-10-30T07:22:55;13.60;99.90
16970;DHT22;8601;48.718;8.992;2022-10-30T07:25:22;13.60;99.90
16970;DHT22;8601;48.718;8.992;2022-10-30T07:27:50;13.80;99.90
16970;DHT22;8601;48.718;8.992;2022-10-30T07:30:19;13.80;99.90
16970;DHT22;8601;48.718;8.992;2022-10-30T07:32:55;13.90;99.90
16970;DHT22;8601;48.718;8.992;2022-10-30T07:35:22;13.80;99.90
16970;DHT22;8601;48.718;8.992;2022-10-30T07:37:50;13.90;99.90
16970;DHT22;8601;48.718;8.992;2022-10-30T07:40:18;13.90;99.90
16970;DHT22;8601;48.718;8.992;2022-10-30T07:42:45;13.90;99.90
16970;DHT22;8601;48.718;8.992;2022-10-30T07:45:13;13.90;99.90
16970;DHT22;8601;48.718;8.992;2022-10-30T07:47:40;14.00;99.90
16970;DHT22;8601;48.718;8.992;2022-10-30T07:50:08;14.00;99.90
16970;DHT22;8601;48.718;8.992;2022-10-30T07:52:35;14.10;99.90
16970;DHT22;8601;48.718;8.992;2022-10-30T07:55:02;14.10;99.90
16970;DHT22;8601;48.718;8.992;2022-10-30T07:57:34;14.20;99.90
16970;DHT22;8601;48.718;8.992;2022-10-30T08:00:02;14.20;99.90
16970;DHT22;8601;48.718;8.992;2022-10-30T08:02:29;14.30;99.90
16970;DHT22;8601;48.718;8.992;2022-10-30T08:04:56;14.30;99.90
16970;DHT22;8601;48.718;8.992;2022-10-30T08:07:23;14.30;99.90
16970;DHT22;8601;48.718;8.992;2022-10-30T08:09:50;14.30;99.90
16970;DHT22;8601;48.718;8.992;2022-10-30T08:12:16;14.40;99.90
16970;DHT22;8601;48.718;8.992;2022-10-30T08:14:53;14.50;99.90
16970;DHT22;8601;48.718;8.992;2022-10-30T08:17:20;14.60;99.90
16970;DHT22;8601;48.718;8.992;2022-10-30T08:19:47;14.60;99.90
16970;DHT22;8601;48.718;8.992;2022-10-30T08:22:14;14.60;99.90
16970;DHT22;8601;48.718;8.992;2022-10-30T08:24:41;14.70;99.60
16970;DHT22;8601;48.718;8.992;2022-10-30T08:27:08;14.80;99.30
16970;DHT22;8601;48.718;8.992;2022-10-30T08:29:42;14.80;99.50
16970;DHT22;8601;48.718;8.992;2022-10-30T08:32:10;14.90;99.70
16970;DHT22;8601;48.718;8.992;2022-10-30T08:34:37;15.00;99.30
16970;DHT22;8601;48.718;8.992;2022-10-30T08:37:05;15.10;98.80
16970;DHT22;8601;48.718;8.992;2022-10-30T08:39:33;15.20;98.30
16970;DHT22;8601;48.718;8.992;2022-10-30T08:42:00;15.30;98.10
16970;DHT22;8601;48.718;8.992;2022-10-30T08:44:27;15.40;97.10
16970;DHT22;8601;48.718;8.992;2022-10-30T08:47:05;15.50;96.90
16970;DHT22;8601;48.718;8.992;2022-10-30T08:49:34;15.70;96.80
16970;DHT22;8601;48.718;8.992;2022-10-30T08:52:00;15.80;96.80
16970;DHT22;8601;48.718;8.992;2022-10-30T08:54:27;15.90;97.00
16970;DHT22;8601;48.718;8.992;2022-10-30T08:56:54;16.10;97.50
16970;DHT22;8601;48.718;8.992;2022-10-30T08:59:21;16.50;95.60
16970;DHT22;8601;48.718;8.992;2022-10-30T09:01:48;16.80;95.30
16970;DHT22;8601;48.718;8.992;2022-10-30T09:04:15;17.30;95.10
16970;DHT22;8601;48.718;8.992;2022-10-30T09:06:43;17.70;93.40
16970;DHT22;8601;48.718;8.992;2022-10-30T09:09:10;18.00;93.30
16970;DHT22;8601;48.718;8.992;2022-10-30T09:11:39;18.30;92.60
16970;DHT22;8601;48.718;8.992;2022-10-30T09:14:06;18.60;91.90
16970;DHT22;8601;48.718;8.992;2022-10-30T09:16:33;18.90;90.80
16970;DHT22;8601;48.718;8.992;2022-10-30T09:18:59;19.20;91.40
16970;DHT22;8601;48.718;8.992;2022-10-30T09:21:26;19.40;90.90
16970;DHT22;8601;48.718;8.992;2022-10-30T09:23:55;19.60;89.30
16970;DHT22;8601;48.718;8.992;2022-10-30T09:26:21;19.90;87.40
16970;DHT22;8601;48.718;8.992;2022-10-30T09:28:48;20.20;89.20
16970;DHT22;8601;48.718;8.992;2022-10-30T09:31:15;20.40;87.60
16970;DHT22;8601;48.718;8.992;2022-10-30T09:33:42;20.60;84.30
16970;DHT22;8601;48.718;8.992;2022-10-30T09:36:09;20.80;84.80
16970;DHT22;8601;48.718;8.992;2022-10-30T09:38:36;21.10;85.60
16970;DHT22;8601;48.718;8.992;2022-10-30T09:41:25;21.30;84.50
16970;DHT22;8601;48.718;8.992;2022-10-30T09:44:06;21.70;85.00
16970;DHT22;8601;48.718;8.992;2022-10-30T09:46:54;21.80;82.20
16970;DHT22;8601;48.718;8.992;2022-10-30T09:49:33;22.00;81.80
16970;DHT22;8601;48.718;8.992;2022-10-30T09:52:12;22.20;79.80
16970;DHT22;8601;48.718;8.992;2022-10-30T09:54:52;22.40;78.40
16970;DHT22;8601;48.718;8.992;2022-10-30T09:57:32;22.40;79.10
16970;DHT22;8601;48.718;8.992;2022-10-30T10:00:06;22.60;77.30
16970;DHT22;8601;48.718;8.992;2022-10-30T10:02:36;22.60;75.70
16970;DHT22;8601;48.718;8.992;2022-10-30T10:05:10;22.70;72.40
16970;DHT22;8601;48.718;8.992;2022-10-30T10:07:48;22.90;75.10
16970;DHT22;8601;48.718;8.992;2022-10-30T10:10:20;23.00;75.10
16970;DHT22;8601;48.718;8.992;2022-10-30T10:12:51;23.10;71.20
16970;DHT22;8601;48.718;8.992;2022-10-30T10:15:27;23.00;70.50
16970;DHT22;8601;48.718;8.992;2022-10-30T10:17:58;23.10;75.00
16970;DHT22;8601;48.718;8.992;2022-10-30T10:20:31;23.10;75.70
16970;DHT22;8601;48.718;8.992;2022-10-30T10:23:01;23.20;75.10
16970;DHT22;8601;48.718;8.992;2022-10-30T10:25:30;23.20;73.80
16970;DHT22;8601;48.718;8.992;2022-10-30T10:28:06;23.20;72.70
16970;DHT22;8601;48.718;8.992;2022-10-30T10:30:43;23.20;70.60
16970;DHT22;8601;48.718;8.992;2022-10-30T10:33:29;23.40;69.80
16970;DHT22;8601;48.718;8.992;2022-10-30T10:36:07;23.50;70.20
16970;DHT22;8601;48.718;8.992;2022-10-30T10:38:50;23.60;66.30
16970;DHT22;8601;48.718;8.992;2022-10-30T10:41:29;23.80;68.40
16970;DHT22;8601;48.718;8.992;2022-10-30T10:44:11;23.90;70.10
16970;DHT22;8601;48.718;8.992;2022-10-30T10:46:53;24.00;67.20
16970;DHT22;8601;48.718;8.992;2022-10-30T10:49:31;24.10;67.80
16970;DHT22;8601;48.718;8.992;2022-10-30T10:52:07;24.20;67.20
16970;DHT22;8601;48.718;8.992;2022-10-30T10:54:41;24.10;65.30
16970;DHT22;8601;48.718;8.992;2022-10-30T10:57:16;24.30;67.20
16970;DHT22;8601;48.718;8.992;2022-10-30T10:59:48;24.10;66.80
16970;DHT22;8601;48.718;8.992;2022-10-30T11:02:34;24.00;62.40
16970;DHT22;8601;48.718;8.992;2022-10-30T11:05:07;24.10;64.90
16970;DHT22;8601;48.718;8.992;2022-10-30T11:07:44;24.20;61.50
16970;DHT22;8601;48.718;8.992;2022-10-30T11:10:14;24.20;61.20
16970;DHT22;8601;48.718;8.992;2022-10-30T11:12:41;24.30;61.50
16970;DHT22;8601;48.718;8.992;2022-10-30T11:15:20;24.30;62.00
16970;DHT22;8601;48.718;8.992;2022-10-30T11:17:54;24.30;61.90
16970;DHT22;8601;48.718;8.992;2022-10-30T11:20:30;24.40;61.30
16970;DHT22;8601;48.718;8.992;2022-10-30T11:23:00;24.40;59.60
16970;DHT22;8601;48.718;8.992;2022-10-30T11:25:33;24.40;62.20
16970;DHT22;8601;48.718;8.992;2022-10-30T11:28:03;24.40;57.40
16970;DHT22;8601;48.718;8.992;2022-10-30T11:30:31;24.40;62.30
16970;DHT22;8601;48.718;8.992;2022-10-30T11:32:59;24.40;59.70
16970;DHT22;8601;48.718;8.992;2022-10-30T11:35:46;24.40;58.60
16970;DHT22;8601;48.718;8.992;2022-10-30T11:38:18;24.30;55.80
16970;DHT22;8601;48.718;8.992;2022-10-30T11:40:47;24.30;56.50
16970;DHT22;8601;48.718;8.992;2022-10-30T11:43:19;24.20;55.90
16970;DHT22;8601;48.718;8.992;2022-10-30T11:45:55;24.00;55.60
16970;DHT22;8601;48.718;8.992;2022-10-30T11:48:26;23.90;56.90
16970;DHT22;8601;48.718;8.992;2022-10-30T11:50:57;23.90;57.10
16970;DHT22;8601;48.718;8.992;2022-10-30T11:53:27;23.80;57.20
16970;DHT22;8601;48.718;8.992;2022-10-30T11:55:56;23.70;58.70
16970;DHT22;8601;48.718;8.992;2022-10-30T11:58:27;23.60;58.90
16970;DHT22;8601;48.718;8.992;2022-10-30T12:01:01;23.60;60.70
16970;DHT22;8601;48.718;8.992;2022-10-30T12:03:34;23.40;68.80
16970;DHT22;8601;48.718;8.992;2022-10-30T12:06:07;23.30;63.60
16970;DHT22;8601;48.718;8.992;2022-10-30T12:08:35;23.20;66.00
16970;DHT22;8601;48.718;8.992;2022-10-30T12:11:04;23.30;65.70
16970;DHT22;8601;48.718;8.992;2022-10-30T12:13:36;23.30;67.90
16970;DHT22;8601;48.718;8.992;2022-10-30T12:16:08;23.40;69.90
16970;DHT22;8601;48.718;8.992;2022-10-30T12:18:38;23.50;64.70
16970;DHT22;8601;48.718;8.992;2022-10-30T12:21:06;23.50;64.20
16970;DHT22;8601;48.718;8.992;2022-10-30T12:23:33;23.60;63.40
16970;DHT22;8601;48.718;8.992;2022-10-30T12:26:06;23.60;62.40
16970;DHT22;8601;48.718;8.992;2022-10-30T12:28:35;23.70;60.80
16970;DHT22;8601;48.718;8.992;2022-10-30T12:31:07;23.70;61.60
16970;DHT22;8601;48.718;8.992;2022-10-30T12:33:41;23.70;61.50
16970;DHT22;8601;48.718;8.992;2022-10-30T12:36:11;23.80;58.30
16970;DHT22;8601;48.718;8.992;2022-10-30T12:38:43;23.80;62.80
16970;DHT22;8601;48.718;8.992;2022-10-30T12:41:15;23.70;61.70
16970;DHT22;8601;48.718;8.992;2022-10-30T12:43:51;23.70;58.40
16970;DHT22;8601;48.718;8.992;2022-10-30T12:46:30;23.70;65.00
16970;DHT22;8601;48.718;8.992;2022-10-30T12:49:06;23.70;66.90
16970;DHT22;8601;48.718;8.992;2022-10-30T12:51:41;23.70;66.90
16970;DHT22;8601;48.718;8.992;2022-10-30T12:54:18;23.70;67.90
16970;DHT22;8601;48.718;8.992;2022-10-30T12:56:51;23.70;65.00
16970;DHT22;8601;48.718;8.992;2022-10-30T12:59:31;23.70;67.10
16970;DHT22;8601;48.718;8.992;2022-10-30T13:02:12;23.70;67.90
16970;DHT22;8601;48.718;8.992;2022-10-30T13:04:45;23.70;61.60
16970;DHT22;8601;48.718;8.992;2022-10-30T13:07:19;23.70;63.40
16970;DHT22;8601;48.718;8.992;2022-10-30T13:09:59;23.70;65.60
16970;DHT22;8601;48.718;8.992;2022-10-30T13:12:30;23.70;71.10
16970;DHT22;8601;48.718;8.992;2022-10-30T13:15:02;23.50;71.20
16970;DHT22;8601;48.718;8.992;2022-10-30T13:17:31;23.40;75.30
16970;DHT22;8601;48.718;8.992;2022-10-30T13:19:59;23.30;71.80
16970;DHT22;8601;48.718;8.992;2022-10-30T13:22:28;23.30;66.70
16970;DHT22;8601;48.718;8.992;2022-10-30T13:25:00;23.40;64.90
16970;DHT22;8601;48.718;8.992;2022-10-30T13:27:44;23.40;65.20
16970;DHT22;8601;48.718;8.992;2022-10-30T13:30:16;23.50;62.60
16970;DHT22;8601;48.718;8.992;2022-10-30T13:32:56;23.50;73.70
16970;DHT22;8601;48.718;8.992;2022-10-30T13:35:34;23.40;73.20
16970;DHT22;8601;48.718;8.992;2022-10-30T13:38:28;23.40;68.20
16970;DHT22;8601;48.718;8.992;2022-10-30T13:41:05;23.40;70.30
16970;DHT22;8601;48.718;8.992;2022-10-30T13:43:38;23.20;71.00
16970;DHT22;8601;48.718;8.992;2022-10-30T13:46:26;23.20;66.90
16970;DHT22;8601;48.718;8.992;2022-10-30T13:49:10;23.20;61.30
16970;DHT22;8601;48.718;8.992;2022-10-30T13:51:43;23.30;66.80
16970;DHT22;8601;48.718;8.992;2022-10-30T13:54:17;23.30;55.80
16970;DHT22;8601;48.718;8.992;2022-10-30T13:56:46;23.40;52.50
16970;DHT22;8601;48.718;8.992;2022-10-30T13:59:23;23.20;66.20
16970;DHT22;8601;48.718;8.992;2022-10-30T14:01:57;22.90;69.00
16970;DHT22;8601;48.718;8.992;2022-10-30T14:04:31;22.80;67.70
16970;DHT22;8601;48.718;8.992;2022-10-30T14:07:14;22.50;71.40
16970;DHT22;8601;48.718;8.992;2022-10-30T14:09:50;22.40;67.90
16970;DHT22;8601;48.718;8.992;2022-10-30T14:12:50;22.30;66.80
16970;DHT22;8601;48.718;8.992;2022-10-30T14:15:31;22.30;65.50
16970;DHT22;8601;48.718;8.992;2022-10-30T14:18:43;22.20;65.40
16970;DHT22;8601;48.718;8.992;2022-10-30T14:21:37;22.20;63.70
16970;DHT22;8601;48.718;8.992;2022-10-30T14:24:10;22.10;65.50
16970;DHT22;8601;48.718;8.992;2022-10-30T14:26:40;21.80;64.90
16970;DHT22;8601;48.718;8.992;2022-10-30T14:29:43;21.70;65.80
16970;DHT22;8601;48.718;8.992;2022-10-30T14:32:34;21.50;66.10
16970;DHT22;8601;48.718;8.992;2022-10-30T14:35:23;21.40;63.70
16970;DHT22;8601;48.718;8.992;2022-10-30T14:37:56;21.40;65.90
16970;DHT22;8601;48.718;8.992;2022-10-30T14:40:38;21.40;64.10
16970;DHT22;8601;48.718;8.992;2022-10-30T14:43:09;21.30;62.80
16970;DHT22;8601;48.718;8.992;2022-10-30T14:45:44;21.30;62.80
16970;DHT22;8601;48.718;8.992;2022-10-30T14:48:18;21.30;60.50
16970;DHT22;8601;48.718;8.992;2022-10-30T14:51:02;21.30;60.90
16970;DHT22;8601;48.718;8.992;2022-10-30T14:53:43;21.20;64.50
16970;DHT22;8601;48.718;8.992;2022-10-30T14:56:23;21.10;66.60
16970;DHT22;8601;48.718;8.992;2022-10-30T14:59:29;21.00;66.50
16970;DHT22;8601;48.718;8.992;2022-10-30T15:02:19;20.90;69.10
16970;DHT22;8601;48.718;8.992;2022-10-30T15:05:02;20.80;69.60
16970;DHT22;8601;48.718;8.992;2022-10-30T15:07:39;20.80;68.00
16970;DHT22;8601;48.718;8.992;2022-10-30T15:10:18;20.80;68.50
16970;DHT22;8601;48.718;8.992;2022-10-30T15:13:07;20.80;69.30
16970;DHT22;8601;48.718;8.992;2022-10-30T15:15:35;20.80;67.80
16970;DHT22;8601;48.718;8.992;2022-10-30T15:18:07;20.70;68.40
16970;DHT22;8601;48.718;8.992;2022-10-30T15:20:36;20.70;67.60
16970;DHT22;8601;48.718;8.992;2022-10-30T15:23:07;20.70;68.80
16970;DHT22;8601;48.718;8.992;2022-10-30T15:25:44;20.60;70.20
16970;DHT22;8601;48.718;8.992;2022-10-30T15:28:15;20.60;68.60
16970;DHT22;8601;48.718;8.992;2022-10-30T15:30:57;20.60;70.80
16970;DHT22;8601;48.718;8.992;2022-10-30T15:33:26;20.50;69.60
16970;DHT22;8601;48.718;8.992;2022-10-30T15:35:56;20.40;70.50
16970;DHT22;8601;48.718;8.992;2022-10-30T15:38:22;20.40;71.10
16970;DHT22;8601;48.718;8.992;2022-10-30T15:40:55;20.30;73.20
16970;DHT22;8601;48.718;8.992;2022-10-30T15:43:27;20.20;74.10
16970;DHT22;8601;48.718;8.992;2022-10-30T15:45:55;20.10;75.40
16970;DHT22;8601;48.718;8.992;2022-10-30T15:48:24;20.00;75.70
16970;DHT22;8601;48.718;8.992;2022-10-30T15:50:58;19.90;77.70
16970;DHT22;8601;48.718;8.992;2022-10-30T15:53:33;19.90;80.20
16970;DHT22;8601;48.718;8.992;2022-10-30T15:56:03;19.80;80.50
16970;DHT22;8601;48.718;8.992;2022-10-30T15:58:34;19.70;81.20
16970;DHT22;8601;48.718;8.992;2022-10-30T16:01:02;19.70;82.40
16970;DHT22;8601;48.718;8.992;2022-10-30T16:03:29;19.60;83.20
16970;DHT22;8601;48.718;8.992;2022-10-30T16:06:05;19.50;83.10
16970;DHT22;8601;48.718;8.992;2022-10-30T16:08:42;19.40;83.60
16970;DHT22;8601;48.718;8.992;2022-10-30T16:11:11;19.30;84.70
16970;DHT22;8601;48.718;8.992;2022-10-30T16:13:38;19.20;87.30
16970;DHT22;8601;48.718;8.992;2022-10-30T16:16:06;19.00;86.20
16970;DHT22;8601;48.718;8.992;2022-10-30T16:18:37;18.90;86.80